Uasc Al Khor — D5IS4 — position and weather

sailwx.info

Track history (hours):
 
Tides and Currents Weather Stations Pressure Air Temp Water Temp Dewpoint Dewpoint Depression Visibility Wind Speed Wind Dir Waves Ship Positions

Uasc Al Khor

Last reported at 2017-Nov-17 22:57 UTC. Time now 2017-Nov-22 09:22 UTC.
Position N 28°17' W 016°03'.

Length 300 m; draft 13.2 m.

Type: Ship (hazmat cat A). MMSI: 636016983.

Date/timePositionNaut miles runAvg speedWind from/ knotsBaromVisibWave heightAir tempDewpointWater temp
2017-Nov-17 22:57N 28°17' W 016°03'816.8
2017-Nov-17 22:30N 28°23' W 015°58'816.9
2017-Nov-17 22:00N 28°29' W 015°52'917.0
2017-Nov-17 21:30N 28°36' W 015°46'816.9
2017-Nov-17 21:00N 28°43' W 015°41'816.9
2017-Nov-17 20:30N 28°51' W 015°36'816.6
2017-Nov-17 20:00N 28°58' W 015°31'916.5
2017-Nov-17 19:29N 29°05' W 015°26'816.5
2017-Nov-17 18:59N 29°12' W 015°21'916.9
2017-Nov-17 18:27N 29°20' W 015°16'916.9
2017-Nov-17 17:54N 29°28' W 015°10'817.0
2017-Nov-17 17:26N 29°35' W 015°06'916.9
2017-Nov-17 16:54N 29°42' W 015°00'716.6
2017-Nov-17 16:30N 29°48' W 014°57'816.4
2017-Nov-17 16:00N 29°55' W 014°52'1016.6
2017-Nov-17 15:25N 30°04' W 014°46'1316.7
2017-Nov-17 14:37N 30°15' W 014°38'4316.7
2017-Nov-17 12:02N 30°52' W 014°13'1116.2
2017-Nov-17 11:19N 31°02' W 014°06'41317.0
2017-Nov-16 10:57N 36°58' W 009°53'716.6
2017-Nov-16 10:30N 37°05' W 009°49'816.5
2017-Nov-16 10:00N 37°11' W 009°42'1116.7
2017-Nov-16 09:20N 37°19' W 009°32'616.9
2017-Nov-16 09:00N 37°23' W 009°27'816.5
2017-Nov-16 08:31N 37°29' W 009°20'816.6
2017-Nov-16 08:00N 37°35' W 009°13'1016.9
2017-Nov-16 07:25N 37°42' W 009°04'716.8
2017-Nov-16 07:00N 37°47' W 008°58'816.1
2017-Nov-16 06:30N 37°54' W 008°53'3 5.8
2017-Nov-16 06:00N 37°56' W 008°51'0 0.1
2017-Nov-16 05:29N 37°56' W 008°51'0 0.0
2017-Nov-16 04:59N 37°56' W 008°51'0 0.0
2017-Nov-16 04:29N 37°56' W 008°51'0 0.0
2017-Nov-16 03:59N 37°56' W 008°51'0 0.0
2017-Nov-16 03:29N 37°56' W 008°51'0 0.0
2017-Nov-16 02:59N 37°56' W 008°51'0 0.0
2017-Nov-16 02:29N 37°56' W 008°51'0 0.0
2017-Nov-16 01:59N 37°56' W 008°51'0 0.0
2017-Nov-16 01:29N 37°56' W 008°51'0 0.0
2017-Nov-16 00:59N 37°56' W 008°51'0 0.0
2017-Nov-16 00:29N 37°56' W 008°51'0 0.0
2017-Nov-15 23:59N 37°56' W 008°51'0 0.0
2017-Nov-15 23:29N 37°56' W 008°51'0 0.0
2017-Nov-15 22:59N 37°56' W 008°51'0 0.0
2017-Nov-15 22:29N 37°56' W 008°51'0 0.0
2017-Nov-15 21:59N 37°56' W 008°51'0 0.0
2017-Nov-15 21:29N 37°56' W 008°51'0 0.0
2017-Nov-15 20:59N 37°56' W 008°51'0 0.0
2017-Nov-15 20:29N 37°56' W 008°51'0 0.0
2017-Nov-15 19:59N 37°56' W 008°51'0 0.0
2017-Nov-15 19:29N 37°56' W 008°51'0 0.0
2017-Nov-15 18:59N 37°56' W 008°51'0 0.0
2017-Nov-15 18:29N 37°56' W 008°51'0 0.0
2017-Nov-15 17:59N 37°56' W 008°51'0 0.0
2017-Nov-15 17:29N 37°56' W 008°51'0 0.0
2017-Nov-15 16:59N 37°56' W 008°51'0 0.0
2017-Nov-15 16:29N 37°56' W 008°51'0 0.0
2017-Nov-15 15:59N 37°56' W 008°51'0 0.0
2017-Nov-15 15:29N 37°56' W 008°51'0 0.0
2017-Nov-15 14:59N 37°56' W 008°51'0 0.0
2017-Nov-15 14:29N 37°56' W 008°51'0 0.0
2017-Nov-15 13:59N 37°56' W 008°51'0 0.0
2017-Nov-15 13:29N 37°56' W 008°51'0 0.0
2017-Nov-15 12:59N 37°56' W 008°51'0 0.1
2017-Nov-15 12:30N 37°56' W 008°51'2 3.2
2017-Nov-15 12:00N 37°54' W 008°51'612.3
2017-Nov-15 11:31N 37°54' W 008°59'612.6
2017-Nov-15 11:00N 37°56' W 009°07'816.1
2017-Nov-15 10:30N 38°01' W 009°15'816.7
2017-Nov-15 10:01N 38°07' W 009°22'918.6
2017-Nov-15 09:30N 38°13' W 009°31'1019.7
2017-Nov-15 09:01N 38°19' W 009°41'1121.3
2017-Nov-15 08:31N 38°27' W 009°51'1121.1
2017-Nov-15 08:00N 38°34' W 010°00'1020.0
2017-Nov-15 07:30N 38°43' W 010°05'1121.3
2017-Nov-15 07:00N 38°54' W 010°06'1121.5
2017-Nov-15 06:31N 39°05' W 010°05'1121.7
2017-Nov-15 06:01N 39°15' W 010°05'1121.5
2017-Nov-15 05:30N 39°26' W 010°06'46920.5
2017-Nov-14 06:37N 46°59' W 007°18'720.2
2017-Nov-14 06:15N 47°05' W 007°13'520.1
2017-Nov-14 06:00N 47°10' W 007°10'1019.5
2017-Nov-14 05:30N 47°18' W 007°03'1019.7
2017-Nov-14 04:59N 47°27' W 006°56'1220.5
2017-Nov-14 04:23N 47°38' W 006°47'1220.2
2017-Nov-14 03:48N 47°48' W 006°38'620.6
2017-Nov-14 03:30N 47°54' W 006°33'1418.9
2017-Nov-14 02:46N 48°06' W 006°23'4 8.8
2017-Nov-14 02:20N 48°09' W 006°21'2 6.0
2017-Nov-14 01:55N 48°11' W 006°19'1018.7
2017-Nov-14 01:23N 48°20' W 006°13'719.0
2017-Nov-14 01:00N 48°27' W 006°08'1018.2
2017-Nov-14 00:28N 48°35' W 006°01'714.5
2017-Nov-14 00:00N 48°41' W 005°56'1018.7
2017-Nov-13 23:28N 48°50' W 005°49'919.2
2017-Nov-13 23:00N 48°56' W 005°39'1418.7
2017-Nov-13 22:17N 49°04' W 005°22'618.2
2017-Nov-13 21:57N 49°07' W 005°14'21110.6
2017-Nov-13 02:00N 49°28' E 000°08'0 0.0
2017-Nov-13 01:30N 49°28' E 000°08'0 0.0
2017-Nov-13 01:00N 49°28' E 000°08'0 0.0
2017-Nov-13 00:30N 49°28' E 000°08'0 0.0
2017-Nov-13 00:00N 49°28' E 000°08'0 0.0
2017-Nov-12 23:30N 49°28' E 000°08'0 0.0
2017-Nov-12 23:00N 49°28' E 000°08'0 0.0
2017-Nov-12 22:30N 49°28' E 000°08'0 0.0
2017-Nov-12 22:00N 49°28' E 000°08'0 0.0
2017-Nov-12 21:30N 49°28' E 000°08'0 0.0
2017-Nov-12 21:00N 49°28' E 000°08'0 0.0
2017-Nov-12 20:30N 49°28' E 000°08'0 0.0
2017-Nov-12 20:00N 49°28' E 000°08'0 0.0
2017-Nov-12 19:30N 49°28' E 000°08'0 0.0
2017-Nov-12 19:00N 49°28' E 000°08'0 0.0
2017-Nov-12 18:30N 49°28' E 000°08'0 0.0
2017-Nov-12 18:00N 49°28' E 000°08'0 0.0
2017-Nov-12 17:30N 49°28' E 000°08'0 0.0
2017-Nov-12 17:00N 49°28' E 000°08'0 0.0
2017-Nov-12 16:30N 49°28' E 000°08'0 0.0
2017-Nov-12 16:00N 49°28' E 000°08'0 0.0
2017-Nov-12 15:30N 49°28' E 000°08'0 0.0
2017-Nov-12 15:00N 49°28' E 000°08'0 0.0
2017-Nov-12 14:30N 49°28' E 000°08'0 0.0
2017-Nov-12 14:00N 49°28' E 000°08'0 0.0
2017-Nov-12 13:30N 49°28' E 000°08'0 0.0
2017-Nov-12 13:00N 49°28' E 000°08'0 0.0
2017-Nov-12 12:30N 49°28' E 000°08'0 0.0
2017-Nov-12 12:00N 49°28' E 000°08'0 0.6
2017-Nov-12 11:30N 49°28' E 000°09'4 8.0
2017-Nov-12 11:00N 49°29' E 000°03'816.4
2017-Nov-12 10:30N 49°32' W 000°09'4 7.6
2017-Nov-12 10:00N 49°35' W 000°12'5 9.3
2017-Nov-12 09:30N 49°40' W 000°11'612.4
2017-Nov-12 09:00N 49°46' W 000°10'612.2
2017-Nov-12 08:30N 49°52' W 000°10'612.0
2017-Nov-12 08:00N 49°58' W 000°10'611.9
2017-Nov-12 07:30N 50°04' W 000°10'611.9
2017-Nov-12 07:00N 50°10' W 000°09'611.9
2017-Nov-12 06:30N 50°16' W 000°09'611.1
2017-Nov-12 05:59N 50°22' W 000°06'511.5
2017-Nov-12 05:30N 50°27' W 000°03'611.8
2017-Nov-12 05:00N 50°29' E 000°06'611.8
2017-Nov-12 04:30N 50°31' E 000°15'611.9
2017-Nov-12 04:00N 50°33' E 000°23'612.1
2017-Nov-12 03:30N 50°35' E 000°32'612.3
2017-Nov-12 03:00N 50°38' E 000°41'611.8
2017-Nov-12 02:30N 50°41' E 000°49'611.7
2017-Nov-12 02:00N 50°44' E 000°56'611.2
2017-Nov-12 01:30N 50°47' E 001°04'611.7
2017-Nov-12 01:00N 50°51' E 001°11'612.3
2017-Nov-12 00:30N 50°55' E 001°19'612.8
2017-Nov-12 00:00N 50°60' E 001°25'612.4
2017-Nov-11 23:30N 51°04' E 001°32'612.3
2017-Nov-11 23:00N 51°08' E 001°39'713.6
2017-Nov-11 22:30N 51°14' E 001°46'713.5
2017-Nov-11 22:00N 51°20' E 001°51'612.4
2017-Nov-11 21:30N 51°24' E 001°58'4 9.0
2017-Nov-11 21:00N 51°25' E 002°05'612.4
2017-Nov-11 20:30N 51°21' E 002°13'611.2
2017-Nov-11 20:00N 51°22' E 002°22'611.9
2017-Nov-11 19:29N 51°23' E 002°32'612.7
2017-Nov-11 19:00N 51°23' E 002°42'510.6
2017-Nov-11 18:30N 51°25' E 002°49'714.8
2017-Nov-11 18:00N 51°25' E 003°01'714.0
2017-Nov-11 17:31N 51°24' E 003°12'713.5
2017-Nov-11 17:01N 51°25' E 003°23'713.2
2017-Nov-11 16:31N 51°26' E 003°33'4 8.5
2017-Nov-11 16:01N 51°26' E 003°40'612.0
2017-Nov-11 15:30N 51°22' E 003°46'612.1
2017-Nov-11 15:00N 51°22' E 003°56'5 9.5
2017-Nov-11 14:30N 51°25' E 004°02'510.7
2017-Nov-11 14:00N 51°23' E 004°09'4 8.7
2017-Nov-11 13:30N 51°21' E 004°16'4 7.7
2017-Nov-11 13:00N 51°17' E 004°15'0 0.3
2017-Nov-11 12:29N 51°17' E 004°15'0 0.0
2017-Nov-11 11:59N 51°17' E 004°15'0 0.0
2017-Nov-11 11:29N 51°17' E 004°15'0 0.0
2017-Nov-11 10:59N 51°17' E 004°15'0 0.0
2017-Nov-11 10:29N 51°17' E 004°15'0 0.0
2017-Nov-11 09:59N 51°17' E 004°15'0 0.0
2017-Nov-11 09:29N 51°17' E 004°15'0 0.0
2017-Nov-11 08:59N 51°17' E 004°15'0 0.0
2017-Nov-11 08:29N 51°17' E 004°15'0 0.0
2017-Nov-11 07:59N 51°17' E 004°15'0 0.0
2017-Nov-11 07:29N 51°17' E 004°15'0 0.0
2017-Nov-11 06:59N 51°17' E 004°15'0 0.0
2017-Nov-11 06:29N 51°17' E 004°15'0 0.0
2017-Nov-11 05:59N 51°17' E 004°15'0 0.0
2017-Nov-11 05:29N 51°17' E 004°15'0 0.0
2017-Nov-11 04:59N 51°17' E 004°15'0 0.0
2017-Nov-11 04:29N 51°17' E 004°15'0 0.0
2017-Nov-11 03:59N 51°17' E 004°15'0 0.0
2017-Nov-11 03:29N 51°17' E 004°15'0 0.0
2017-Nov-11 02:56N 51°17' E 004°15'0 0.0
2017-Nov-11 02:29N 51°17' E 004°15'0 0.0
2017-Nov-11 01:59N 51°17' E 004°15'0 0.0
2017-Nov-11 01:29N 51°17' E 004°15'0 0.0
2017-Nov-11 00:56N 51°17' E 004°15'0 0.0
2017-Nov-11 00:29N 51°17' E 004°15'0 0.0
2017-Nov-10 23:59N 51°17' E 004°15'0 0.0
2017-Nov-10 23:29N 51°17' E 004°15'0 0.0
2017-Nov-10 22:59N 51°17' E 004°15'0 0.0
2017-Nov-10 22:29N 51°17' E 004°15'0 0.0
2017-Nov-10 21:59N 51°17' E 004°15'0 0.0
2017-Nov-10 21:29N 51°17' E 004°15'0 0.0
2017-Nov-10 20:59N 51°17' E 004°15'0 0.0
2017-Nov-10 20:29N 51°17' E 004°15'0 0.0
2017-Nov-10 19:59N 51°17' E 004°15'0 0.0
2017-Nov-10 19:29N 51°17' E 004°15'0 0.0
2017-Nov-10 18:59N 51°17' E 004°15'0 0.0
2017-Nov-10 18:29N 51°17' E 004°15'0 0.0
2017-Nov-10 17:59N 51°17' E 004°15'0 0.0
2017-Nov-10 17:29N 51°17' E 004°15'0 0.0
2017-Nov-10 16:59N 51°17' E 004°15'0 0.0
2017-Nov-10 16:29N 51°17' E 004°15'0 0.0
2017-Nov-10 15:59N 51°17' E 004°15'0 0.0
2017-Nov-10 15:29N 51°17' E 004°15'0 0.0
2017-Nov-10 14:59N 51°17' E 004°15'0 0.0
2017-Nov-10 14:28N 51°17' E 004°15'0 0.0
2017-Nov-10 13:59N 51°17' E 004°15'0 0.0
2017-Nov-10 13:28N 51°17' E 004°15'0 0.0
2017-Nov-10 12:58N 51°17' E 004°15'0 0.0
2017-Nov-10 12:28N 51°17' E 004°15'0 0.0
2017-Nov-10 11:58N 51°17' E 004°15'0 0.0
2017-Nov-10 11:29N 51°17' E 004°15'0 0.0
2017-Nov-10 10:59N 51°17' E 004°15'0 0.0
2017-Nov-10 10:29N 51°17' E 004°15'0 0.0
2017-Nov-10 09:58N 51°17' E 004°15'0 0.0
2017-Nov-10 09:29N 51°17' E 004°15'0 0.0
2017-Nov-10 08:59N 51°17' E 004°15'0 0.0
2017-Nov-10 08:28N 51°17' E 004°15'0 0.0
2017-Nov-10 07:58N 51°17' E 004°15'0 0.0
2017-Nov-10 07:29N 51°17' E 004°15'0 0.0
2017-Nov-10 06:55N 51°17' E 004°15'0 0.0
2017-Nov-10 06:28N 51°17' E 004°15'0 0.0
2017-Nov-10 05:59N 51°17' E 004°15'0 0.0
2017-Nov-10 05:28N 51°17' E 004°15'0 0.0
2017-Nov-10 04:58N 51°17' E 004°15'0 0.0
2017-Nov-10 04:29N 51°17' E 004°15'1 1.3
2017-Nov-10 04:00N 51°17' E 004°16'1 2.3
2017-Nov-10 03:30N 51°18' E 004°16'4 7.2
2017-Nov-10 03:00N 51°22' E 004°14'4 8.3
2017-Nov-10 02:30N 51°22' E 004°07'5 9.3
2017-Nov-10 02:00N 51°25' E 004°02'4 8.4
2017-Nov-10 01:30N 51°23' E 003°56'510.5
2017-Nov-10 01:00N 51°21' E 003°49'510.7
2017-Nov-10 00:30N 51°25' E 003°42'510.1
2017-Nov-10 00:01N 51°26' E 003°35'4 7.8
2017-Nov-09 23:30N 51°25' E 003°28'612.4
2017-Nov-09 23:01N 51°24' E 003°18'713.1
2017-Nov-09 22:30N 51°24' E 003°08'611.7
2017-Nov-09 22:00N 51°27' E 002°60'918.5
2017-Nov-09 21:30N 51°34' E 003°09'917.8
2017-Nov-09 21:00N 51°43' E 003°13'611.2
2017-Nov-09 20:29N 51°48' E 003°16'2216.2
2017-Nov-09 19:07N 52°10' E 003°23'216.2
2017-Nov-09 19:00N 52°12' E 003°23'1016.1
2017-Nov-09 18:24N 52°21' E 003°26'1615.9
2017-Nov-09 17:26N 52°37' E 003°31'615.0
2017-Nov-09 17:00N 52°42' E 003°38'715.1
2017-Nov-09 16:30N 52°47' E 003°46'815.6
2017-Nov-09 16:01N 52°53' E 003°54'815.8
2017-Nov-09 15:31N 52°59' E 004°02'815.9
2017-Nov-09 15:00N 53°04' E 004°12'816.0
2017-Nov-09 14:30N 53°10' E 004°22'4115.4
2017-Nov-09 11:50N 53°37' E 005°14'615.8
2017-Nov-09 11:27N 53°39' E 005°23'815.7
2017-Nov-09 10:57N 53°42' E 005°36'1615.7
2017-Nov-09 09:56N 53°47' E 006°02'2215.4
2017-Nov-09 08:29N 53°53' E 006°38'3413.5
2017-Nov-09 05:58N 54°01' E 007°34'613.5
2017-Nov-09 05:30N 54°02' E 007°44'713.3
2017-Nov-09 05:00N 54°02' E 007°56'713.3
2017-Nov-09 04:30N 54°01' E 008°07'611.8
2017-Nov-09 04:00N 54°00' E 008°17'918.9
2017-Nov-09 03:30N 53°58' E 008°33'714.9
2017-Nov-09 03:00N 53°53' E 008°42'611.5
2017-Nov-09 02:30N 53°50' E 008°51'510.5
2017-Nov-09 02:01N 53°51' E 008°59'510.8
2017-Nov-09 01:30N 53°53' E 009°08'510.2
2017-Nov-09 01:00N 53°52' E 009°17'714.7
2017-Nov-09 00:30N 53°46' E 009°24'713.7
2017-Nov-09 00:01N 53°40' E 009°30'612.1
2017-Nov-08 23:30N 53°36' E 009°36'612.6
2017-Nov-08 23:00N 53°34' E 009°46'510.7
2017-Nov-08 22:31N 53°33' E 009°55'3 5.3
2017-Nov-08 22:01N 53°30' E 009°56'0 0.0
2017-Nov-08 21:29N 53°30' E 009°56'0 0.0
2017-Nov-08 21:00N 53°30' E 009°56'0 0.0
2017-Nov-08 20:29N 53°30' E 009°56'0 0.0
2017-Nov-08 19:59N 53°30' E 009°56'0 0.0
2017-Nov-08 19:29N 53°30' E 009°56'0 0.0
2017-Nov-08 18:59N 53°30' E 009°56'0 0.0
2017-Nov-08 18:29N 53°30' E 009°56'0 0.0
2017-Nov-08 17:59N 53°30' E 009°56'0 0.0
2017-Nov-08 17:29N 53°30' E 009°56'0 0.0
2017-Nov-08 16:59N 53°30' E 009°56'0 0.0
2017-Nov-08 16:29N 53°30' E 009°56'0 0.0
2017-Nov-08 15:59N 53°30' E 009°56'0 0.0
2017-Nov-08 15:29N 53°30' E 009°56'0 0.0
2017-Nov-08 14:59N 53°30' E 009°56'0 0.0
2017-Nov-08 14:29N 53°30' E 009°56'0 0.0
2017-Nov-08 13:59N 53°30' E 009°56'0 0.0
2017-Nov-08 13:29N 53°30' E 009°56'0 0.0
2017-Nov-08 12:59N 53°30' E 009°56'0 0.0
2017-Nov-08 12:29N 53°30' E 009°56'0 0.0
2017-Nov-08 11:59N 53°30' E 009°56'0 0.2
2017-Nov-08 11:31N 53°30' E 009°56'1 1.4
2017-Nov-08 11:01N 53°31' E 009°56'3 5.3
2017-Nov-08 10:31N 53°33' E 009°53'3 6.5
2017-Nov-08 10:00N 53°33' E 009°48'4 7.7
2017-Nov-08 09:31N 53°34' E 009°42'5 9.9
2017-Nov-08 09:00N 53°37' E 009°34'5 9.9
2017-Nov-08 08:30N 53°41' E 009°30'611.5
2017-Nov-08 08:00N 53°45' E 009°24'510.7
2017-Nov-08 07:31N 53°50' E 009°21'612.1
2017-Nov-08 07:00N 53°53' E 009°11'3 6.7
2017-Nov-08 06:30N 53°53' E 009°06'5 9.5
2017-Nov-08 06:00N 53°51' E 008°58'611.1
2017-Nov-08 05:30N 53°50' E 008°49'5 9.6
2017-Nov-08 05:00N 53°53' E 008°42'612.0
2017-Nov-08 04:30N 53°58' E 008°36'713.7
2017-Nov-08 04:01N 53°59' E 008°24'815.9
2017-Nov-08 03:31N 53°59' E 008°11'713.6
2017-Nov-08 03:00N 54°01' E 007°59'713.6
2017-Nov-08 02:30N 54°04' E 007°49'1 1.0
2017-Nov-08 01:55N 54°04' E 007°48'0 0.1
2017-Nov-08 01:25N 54°04' E 007°48'0 0.0
2017-Nov-08 00:58N 54°04' E 007°48'0 0.0
2017-Nov-08 00:28N 54°04' E 007°48'0 0.0
2017-Nov-07 23:58N 54°04' E 007°48'0 0.0
2017-Nov-07 23:28N 54°04' E 007°48'  
Track history (hours):
 
Tides and Currents Weather Stations Pressure Air Temp Water Temp Dewpoint Dewpoint Depression Visibility Wind Speed Wind Dir Waves Ship Positions

Uasc Al Khor

Last reported at 2017-Nov-17 22:57 UTC. Time now 2017-Nov-22 09:22 UTC.
Position N 28°17' W 016°03'.

Length 300 m; draft 13.2 m.

Type: Ship (hazmat cat A). MMSI: 636016983.

Date/timePositionNaut miles runAvg speedWind from/ knotsBaromVisibWave heightAir tempDewpointWater temp
2017-Nov-17 22:57N 28°17' W 016°03'816.8
2017-Nov-17 22:30N 28°23' W 015°58'816.9
2017-Nov-17 22:00N 28°29' W 015°52'917.0
2017-Nov-17 21:30N 28°36' W 015°46'816.9
2017-Nov-17 21:00N 28°43' W 015°41'816.9
2017-Nov-17 20:30N 28°51' W 015°36'816.6
2017-Nov-17 20:00N 28°58' W 015°31'916.5
2017-Nov-17 19:29N 29°05' W 015°26'816.5
2017-Nov-17 18:59N 29°12' W 015°21'916.9
2017-Nov-17 18:27N 29°20' W 015°16'916.9
2017-Nov-17 17:54N 29°28' W 015°10'817.0
2017-Nov-17 17:26N 29°35' W 015°06'916.9
2017-Nov-17 16:54N 29°42' W 015°00'716.6
2017-Nov-17 16:30N 29°48' W 014°57'816.4
2017-Nov-17 16:00N 29°55' W 014°52'1016.6
2017-Nov-17 15:25N 30°04' W 014°46'1316.7
2017-Nov-17 14:37N 30°15' W 014°38'4316.7
2017-Nov-17 12:02N 30°52' W 014°13'1116.2
2017-Nov-17 11:19N 31°02' W 014°06'41317.0
2017-Nov-16 10:57N 36°58' W 009°53'716.6
2017-Nov-16 10:30N 37°05' W 009°49'816.5
2017-Nov-16 10:00N 37°11' W 009°42'1116.7
2017-Nov-16 09:20N 37°19' W 009°32'616.9
2017-Nov-16 09:00N 37°23' W 009°27'816.5
2017-Nov-16 08:31N 37°29' W 009°20'816.6
2017-Nov-16 08:00N 37°35' W 009°13'1016.9
2017-Nov-16 07:25N 37°42' W 009°04'716.8
2017-Nov-16 07:00N 37°47' W 008°58'816.1
2017-Nov-16 06:30N 37°54' W 008°53'3 5.8
2017-Nov-16 06:00N 37°56' W 008°51'0 0.1
2017-Nov-16 05:29N 37°56' W 008°51'0 0.0
2017-Nov-16 04:59N 37°56' W 008°51'0 0.0
2017-Nov-16 04:29N 37°56' W 008°51'0 0.0
2017-Nov-16 03:59N 37°56' W 008°51'0 0.0
2017-Nov-16 03:29N 37°56' W 008°51'0 0.0
2017-Nov-16 02:59N 37°56' W 008°51'0 0.0
2017-Nov-16 02:29N 37°56' W 008°51'0 0.0
2017-Nov-16 01:59N 37°56' W 008°51'0 0.0
2017-Nov-16 01:29N 37°56' W 008°51'0 0.0
2017-Nov-16 00:59N 37°56' W 008°51'0 0.0
2017-Nov-16 00:29N 37°56' W 008°51'0 0.0
2017-Nov-15 23:59N 37°56' W 008°51'0 0.0
2017-Nov-15 23:29N 37°56' W 008°51'0 0.0
2017-Nov-15 22:59N 37°56' W 008°51'0 0.0
2017-Nov-15 22:29N 37°56' W 008°51'0 0.0
2017-Nov-15 21:59N 37°56' W 008°51'0 0.0
2017-Nov-15 21:29N 37°56' W 008°51'0 0.0
2017-Nov-15 20:59N 37°56' W 008°51'0 0.0
2017-Nov-15 20:29N 37°56' W 008°51'0 0.0
2017-Nov-15 19:59N 37°56' W 008°51'0 0.0
2017-Nov-15 19:29N 37°56' W 008°51'0 0.0
2017-Nov-15 18:59N 37°56' W 008°51'0 0.0
2017-Nov-15 18:29N 37°56' W 008°51'0 0.0
2017-Nov-15 17:59N 37°56' W 008°51'0 0.0
2017-Nov-15 17:29N 37°56' W 008°51'0 0.0
2017-Nov-15 16:59N 37°56' W 008°51'0 0.0
2017-Nov-15 16:29N 37°56' W 008°51'0 0.0
2017-Nov-15 15:59N 37°56' W 008°51'0 0.0
2017-Nov-15 15:29N 37°56' W 008°51'0 0.0
2017-Nov-15 14:59N 37°56' W 008°51'0 0.0
2017-Nov-15 14:29N 37°56' W 008°51'0 0.0
2017-Nov-15 13:59N 37°56' W 008°51'0 0.0
2017-Nov-15 13:29N 37°56' W 008°51'0 0.0
2017-Nov-15 12:59N 37°56' W 008°51'0 0.1
2017-Nov-15 12:30N 37°56' W 008°51'2 3.2
2017-Nov-15 12:00N 37°54' W 008°51'612.3
2017-Nov-15 11:31N 37°54' W 008°59'612.6
2017-Nov-15 11:00N 37°56' W 009°07'816.1
2017-Nov-15 10:30N 38°01' W 009°15'816.7
2017-Nov-15 10:01N 38°07' W 009°22'918.6
2017-Nov-15 09:30N 38°13' W 009°31'1019.7
2017-Nov-15 09:01N 38°19' W 009°41'1121.3
2017-Nov-15 08:31N 38°27' W 009°51'1121.1
2017-Nov-15 08:00N 38°34' W 010°00'1020.0
2017-Nov-15 07:30N 38°43' W 010°05'1121.3
2017-Nov-15 07:00N 38°54' W 010°06'1121.5
2017-Nov-15 06:31N 39°05' W 010°05'1121.7
2017-Nov-15 06:01N 39°15' W 010°05'1121.5
2017-Nov-15 05:30N 39°26' W 010°06'46920.5
2017-Nov-14 06:37N 46°59' W 007°18'720.2
2017-Nov-14 06:15N 47°05' W 007°13'520.1
2017-Nov-14 06:00N 47°10' W 007°10'1019.5
2017-Nov-14 05:30N 47°18' W 007°03'1019.7
2017-Nov-14 04:59N 47°27' W 006°56'1220.5
2017-Nov-14 04:23N 47°38' W 006°47'1220.2
2017-Nov-14 03:48N 47°48' W 006°38'620.6
2017-Nov-14 03:30N 47°54' W 006°33'1418.9
2017-Nov-14 02:46N 48°06' W 006°23'4 8.8
2017-Nov-14 02:20N 48°09' W 006°21'2 6.0
2017-Nov-14 01:55N 48°11' W 006°19'1018.7
2017-Nov-14 01:23N 48°20' W 006°13'719.0
2017-Nov-14 01:00N 48°27' W 006°08'1018.2
2017-Nov-14 00:28N 48°35' W 006°01'714.5
2017-Nov-14 00:00N 48°41' W 005°56'1018.7
2017-Nov-13 23:28N 48°50' W 005°49'919.2
2017-Nov-13 23:00N 48°56' W 005°39'1418.7
2017-Nov-13 22:17N 49°04' W 005°22'618.2
2017-Nov-13 21:57N 49°07' W 005°14'21110.6
2017-Nov-13 02:00N 49°28' E 000°08'0 0.0
2017-Nov-13 01:30N 49°28' E 000°08'0 0.0
2017-Nov-13 01:00N 49°28' E 000°08'0 0.0
2017-Nov-13 00:30N 49°28' E 000°08'0 0.0
2017-Nov-13 00:00N 49°28' E 000°08'0 0.0
2017-Nov-12 23:30N 49°28' E 000°08'0 0.0
2017-Nov-12 23:00N 49°28' E 000°08'0 0.0
2017-Nov-12 22:30N 49°28' E 000°08'0 0.0
2017-Nov-12 22:00N 49°28' E 000°08'0 0.0
2017-Nov-12 21:30N 49°28' E 000°08'0 0.0
2017-Nov-12 21:00N 49°28' E 000°08'0 0.0
2017-Nov-12 20:30N 49°28' E 000°08'0 0.0
2017-Nov-12 20:00N 49°28' E 000°08'0 0.0
2017-Nov-12 19:30N 49°28' E 000°08'0 0.0
2017-Nov-12 19:00N 49°28' E 000°08'0 0.0
2017-Nov-12 18:30N 49°28' E 000°08'0 0.0
2017-Nov-12 18:00N 49°28' E 000°08'0 0.0
2017-Nov-12 17:30N 49°28' E 000°08'0 0.0
2017-Nov-12 17:00N 49°28' E 000°08'0 0.0
2017-Nov-12 16:30N 49°28' E 000°08'0 0.0
2017-Nov-12 16:00N 49°28' E 000°08'0 0.0
2017-Nov-12 15:30N 49°28' E 000°08'0 0.0
2017-Nov-12 15:00N 49°28' E 000°08'0 0.0
2017-Nov-12 14:30N 49°28' E 000°08'0 0.0
2017-Nov-12 14:00N 49°28' E 000°08'0 0.0
2017-Nov-12 13:30N 49°28' E 000°08'0 0.0
2017-Nov-12 13:00N 49°28' E 000°08'0 0.0
2017-Nov-12 12:30N 49°28' E 000°08'0 0.0
2017-Nov-12 12:00N 49°28' E 000°08'0 0.6
2017-Nov-12 11:30N 49°28' E 000°09'4 8.0
2017-Nov-12 11:00N 49°29' E 000°03'816.4
2017-Nov-12 10:30N 49°32' W 000°09'4 7.6
2017-Nov-12 10:00N 49°35' W 000°12'5 9.3
2017-Nov-12 09:30N 49°40' W 000°11'612.4
2017-Nov-12 09:00N 49°46' W 000°10'612.2
2017-Nov-12 08:30N 49°52' W 000°10'612.0
2017-Nov-12 08:00N 49°58' W 000°10'611.9
2017-Nov-12 07:30N 50°04' W 000°10'611.9
2017-Nov-12 07:00N 50°10' W 000°09'611.9
2017-Nov-12 06:30N 50°16' W 000°09'611.1
2017-Nov-12 05:59N 50°22' W 000°06'511.5
2017-Nov-12 05:30N 50°27' W 000°03'611.8
2017-Nov-12 05:00N 50°29' E 000°06'611.8
2017-Nov-12 04:30N 50°31' E 000°15'611.9
2017-Nov-12 04:00N 50°33' E 000°23'612.1
2017-Nov-12 03:30N 50°35' E 000°32'612.3
2017-Nov-12 03:00N 50°38' E 000°41'611.8
2017-Nov-12 02:30N 50°41' E 000°49'611.7
2017-Nov-12 02:00N 50°44' E 000°56'611.2
2017-Nov-12 01:30N 50°47' E 001°04'611.7
2017-Nov-12 01:00N 50°51' E 001°11'612.3
2017-Nov-12 00:30N 50°55' E 001°19'612.8
2017-Nov-12 00:00N 50°60' E 001°25'612.4
2017-Nov-11 23:30N 51°04' E 001°32'612.3
2017-Nov-11 23:00N 51°08' E 001°39'713.6
2017-Nov-11 22:30N 51°14' E 001°46'713.5
2017-Nov-11 22:00N 51°20' E 001°51'612.4
2017-Nov-11 21:30N 51°24' E 001°58'4 9.0
2017-Nov-11 21:00N 51°25' E 002°05'612.4
2017-Nov-11 20:30N 51°21' E 002°13'611.2
2017-Nov-11 20:00N 51°22' E 002°22'611.9
2017-Nov-11 19:29N 51°23' E 002°32'612.7
2017-Nov-11 19:00N 51°23' E 002°42'510.6
2017-Nov-11 18:30N 51°25' E 002°49'714.8
2017-Nov-11 18:00N 51°25' E 003°01'714.0
2017-Nov-11 17:31N 51°24' E 003°12'713.5
2017-Nov-11 17:01N 51°25' E 003°23'713.2
2017-Nov-11 16:31N 51°26' E 003°33'4 8.5
2017-Nov-11 16:01N 51°26' E 003°40'612.0
2017-Nov-11 15:30N 51°22' E 003°46'612.1
2017-Nov-11 15:00N 51°22' E 003°56'5 9.5
2017-Nov-11 14:30N 51°25' E 004°02'510.7
2017-Nov-11 14:00N 51°23' E 004°09'4 8.7
2017-Nov-11 13:30N 51°21' E 004°16'4 7.7
2017-Nov-11 13:00N 51°17' E 004°15'0 0.3
2017-Nov-11 12:29N 51°17' E 004°15'0 0.0
2017-Nov-11 11:59N 51°17' E 004°15'0 0.0
2017-Nov-11 11:29N 51°17' E 004°15'0 0.0
2017-Nov-11 10:59N 51°17' E 004°15'0 0.0
2017-Nov-11 10:29N 51°17' E 004°15'0 0.0
2017-Nov-11 09:59N 51°17' E 004°15'0 0.0
2017-Nov-11 09:29N 51°17' E 004°15'0 0.0
2017-Nov-11 08:59N 51°17' E 004°15'0 0.0
2017-Nov-11 08:29N 51°17' E 004°15'0 0.0
2017-Nov-11 07:59N 51°17' E 004°15'0 0.0
2017-Nov-11 07:29N 51°17' E 004°15'0 0.0
2017-Nov-11 06:59N 51°17' E 004°15'0 0.0
2017-Nov-11 06:29N 51°17' E 004°15'0 0.0
2017-Nov-11 05:59N 51°17' E 004°15'0 0.0
2017-Nov-11 05:29N 51°17' E 004°15'0 0.0
2017-Nov-11 04:59N 51°17' E 004°15'0 0.0
2017-Nov-11 04:29N 51°17' E 004°15'0 0.0
2017-Nov-11 03:59N 51°17' E 004°15'0 0.0
2017-Nov-11 03:29N 51°17' E 004°15'0 0.0
2017-Nov-11 02:56N 51°17' E 004°15'0 0.0
2017-Nov-11 02:29N 51°17' E 004°15'0 0.0
2017-Nov-11 01:59N 51°17' E 004°15'0 0.0
2017-Nov-11 01:29N 51°17' E 004°15'0 0.0
2017-Nov-11 00:56N 51°17' E 004°15'0 0.0
2017-Nov-11 00:29N 51°17' E 004°15'0 0.0
2017-Nov-10 23:59N 51°17' E 004°15'0 0.0
2017-Nov-10 23:29N 51°17' E 004°15'0 0.0
2017-Nov-10 22:59N 51°17' E 004°15'0 0.0
2017-Nov-10 22:29N 51°17' E 004°15'0 0.0
2017-Nov-10 21:59N 51°17' E 004°15'0 0.0
2017-Nov-10 21:29N 51°17' E 004°15'0 0.0
2017-Nov-10 20:59N 51°17' E 004°15'0 0.0
2017-Nov-10 20:29N 51°17' E 004°15'0 0.0
2017-Nov-10 19:59N 51°17' E 004°15'0 0.0
2017-Nov-10 19:29N 51°17' E 004°15'0 0.0
2017-Nov-10 18:59N 51°17' E 004°15'0 0.0
2017-Nov-10 18:29N 51°17' E 004°15'0 0.0
2017-Nov-10 17:59N 51°17' E 004°15'0 0.0
2017-Nov-10 17:29N 51°17' E 004°15'0 0.0
2017-Nov-10 16:59N 51°17' E 004°15'0 0.0
2017-Nov-10 16:29N 51°17' E 004°15'0 0.0
2017-Nov-10 15:59N 51°17' E 004°15'0 0.0
2017-Nov-10 15:29N 51°17' E 004°15'0 0.0
2017-Nov-10 14:59N 51°17' E 004°15'0 0.0
2017-Nov-10 14:28N 51°17' E 004°15'0 0.0
2017-Nov-10 13:59N 51°17' E 004°15'0 0.0
2017-Nov-10 13:28N 51°17' E 004°15'0 0.0
2017-Nov-10 12:58N 51°17' E 004°15'0 0.0
2017-Nov-10 12:28N 51°17' E 004°15'0 0.0
2017-Nov-10 11:58N 51°17' E 004°15'0 0.0
2017-Nov-10 11:29N 51°17' E 004°15'0 0.0
2017-Nov-10 10:59N 51°17' E 004°15'0 0.0
2017-Nov-10 10:29N 51°17' E 004°15'0 0.0
2017-Nov-10 09:58N 51°17' E 004°15'0 0.0
2017-Nov-10 09:29N 51°17' E 004°15'0 0.0
2017-Nov-10 08:59N 51°17' E 004°15'0 0.0
2017-Nov-10 08:28N 51°17' E 004°15'0 0.0
2017-Nov-10 07:58N 51°17' E 004°15'0 0.0
2017-Nov-10 07:29N 51°17' E 004°15'0 0.0
2017-Nov-10 06:55N 51°17' E 004°15'0 0.0
2017-Nov-10 06:28N 51°17' E 004°15'0 0.0
2017-Nov-10 05:59N 51°17' E 004°15'0 0.0
2017-Nov-10 05:28N 51°17' E 004°15'0 0.0
2017-Nov-10 04:58N 51°17' E 004°15'0 0.0
2017-Nov-10 04:29N 51°17' E 004°15'1 1.3
2017-Nov-10 04:00N 51°17' E 004°16'1 2.3
2017-Nov-10 03:30N 51°18' E 004°16'4 7.2
2017-Nov-10 03:00N 51°22' E 004°14'4 8.3
2017-Nov-10 02:30N 51°22' E 004°07'5 9.3
2017-Nov-10 02:00N 51°25' E 004°02'4 8.4
2017-Nov-10 01:30N 51°23' E 003°56'510.5
2017-Nov-10 01:00N 51°21' E 003°49'510.7
2017-Nov-10 00:30N 51°25' E 003°42'510.1
2017-Nov-10 00:01N 51°26' E 003°35'4 7.8
2017-Nov-09 23:30N 51°25' E 003°28'612.4
2017-Nov-09 23:01N 51°24' E 003°18'713.1
2017-Nov-09 22:30N 51°24' E 003°08'611.7
2017-Nov-09 22:00N 51°27' E 002°60'918.5
2017-Nov-09 21:30N 51°34' E 003°09'917.8
2017-Nov-09 21:00N 51°43' E 003°13'611.2
2017-Nov-09 20:29N 51°48' E 003°16'2216.2
2017-Nov-09 19:07N 52°10' E 003°23'216.2
2017-Nov-09 19:00N 52°12' E 003°23'1016.1
2017-Nov-09 18:24N 52°21' E 003°26'1615.9
2017-Nov-09 17:26N 52°37' E 003°31'615.0
2017-Nov-09 17:00N 52°42' E 003°38'715.1
2017-Nov-09 16:30N 52°47' E 003°46'815.6
2017-Nov-09 16:01N 52°53' E 003°54'815.8
2017-Nov-09 15:31N 52°59' E 004°02'815.9
2017-Nov-09 15:00N 53°04' E 004°12'816.0
2017-Nov-09 14:30N 53°10' E 004°22'4115.4
2017-Nov-09 11:50N 53°37' E 005°14'615.8
2017-Nov-09 11:27N 53°39' E 005°23'815.7
2017-Nov-09 10:57N 53°42' E 005°36'1615.7
2017-Nov-09 09:56N 53°47' E 006°02'2215.4
2017-Nov-09 08:29N 53°53' E 006°38'3413.5
2017-Nov-09 05:58N 54°01' E 007°34'613.5
2017-Nov-09 05:30N 54°02' E 007°44'713.3
2017-Nov-09 05:00N 54°02' E 007°56'713.3
2017-Nov-09 04:30N 54°01' E 008°07'611.8
2017-Nov-09 04:00N 54°00' E 008°17'918.9
2017-Nov-09 03:30N 53°58' E 008°33'714.9
2017-Nov-09 03:00N 53°53' E 008°42'611.5
2017-Nov-09 02:30N 53°50' E 008°51'510.5
2017-Nov-09 02:01N 53°51' E 008°59'510.8
2017-Nov-09 01:30N 53°53' E 009°08'510.2
2017-Nov-09 01:00N 53°52' E 009°17'714.7
2017-Nov-09 00:30N 53°46' E 009°24'713.7
2017-Nov-09 00:01N 53°40' E 009°30'612.1
2017-Nov-08 23:30N 53°36' E 009°36'612.6
2017-Nov-08 23:00N 53°34' E 009°46'510.7
2017-Nov-08 22:31N 53°33' E 009°55'3 5.3
2017-Nov-08 22:01N 53°30' E 009°56'0 0.0
2017-Nov-08 21:29N 53°30' E 009°56'0 0.0
2017-Nov-08 21:00N 53°30' E 009°56'0 0.0
2017-Nov-08 20:29N 53°30' E 009°56'0 0.0
2017-Nov-08 19:59N 53°30' E 009°56'0 0.0
2017-Nov-08 19:29N 53°30' E 009°56'0 0.0
2017-Nov-08 18:59N 53°30' E 009°56'0 0.0
2017-Nov-08 18:29N 53°30' E 009°56'0 0.0
2017-Nov-08 17:59N 53°30' E 009°56'0 0.0
2017-Nov-08 17:29N 53°30' E 009°56'0 0.0
2017-Nov-08 16:59N 53°30' E 009°56'0 0.0
2017-Nov-08 16:29N 53°30' E 009°56'0 0.0
2017-Nov-08 15:59N 53°30' E 009°56'0 0.0
2017-Nov-08 15:29N 53°30' E 009°56'0 0.0
2017-Nov-08 14:59N 53°30' E 009°56'0 0.0
2017-Nov-08 14:29N 53°30' E 009°56'0 0.0
2017-Nov-08 13:59N 53°30' E 009°56'0 0.0
2017-Nov-08 13:29N 53°30' E 009°56'0 0.0
2017-Nov-08 12:59N 53°30' E 009°56'0 0.0
2017-Nov-08 12:29N 53°30' E 009°56'0 0.0
2017-Nov-08 11:59N 53°30' E 009°56'0 0.2
2017-Nov-08 11:31N 53°30' E 009°56'1 1.4
2017-Nov-08 11:01N 53°31' E 009°56'3 5.3
2017-Nov-08 10:31N 53°33' E 009°53'3 6.5
2017-Nov-08 10:00N 53°33' E 009°48'4 7.7
2017-Nov-08 09:31N 53°34' E 009°42'5 9.9
2017-Nov-08 09:00N 53°37' E 009°34'5 9.9
2017-Nov-08 08:30N 53°41' E 009°30'611.5
2017-Nov-08 08:00N 53°45' E 009°24'510.7
2017-Nov-08 07:31N 53°50' E 009°21'612.1
2017-Nov-08 07:00N 53°53' E 009°11'3 6.7
2017-Nov-08 06:30N 53°53' E 009°06'5 9.5
2017-Nov-08 06:00N 53°51' E 008°58'611.1
2017-Nov-08 05:30N 53°50' E 008°49'5 9.6
2017-Nov-08 05:00N 53°53' E 008°42'612.0
2017-Nov-08 04:30N 53°58' E 008°36'713.7
2017-Nov-08 04:01N 53°59' E 008°24'815.9
2017-Nov-08 03:31N 53°59' E 008°11'713.6
2017-Nov-08 03:00N 54°01' E 007°59'713.6
2017-Nov-08 02:30N 54°04' E 007°49'1 1.0
2017-Nov-08 01:55N 54°04' E 007°48'0 0.1
2017-Nov-08 01:25N 54°04' E 007°48'0 0.0
2017-Nov-08 00:58N 54°04' E 007°48'0 0.0
2017-Nov-08 00:28N 54°04' E 007°48'0 0.0
2017-Nov-07 23:58N 54°04' E 007°48'0 0.0
2017-Nov-07 23:28N 54°04' E 007°48'  

Dump ship's entire track history